Time;durP1;ratioP1;P1;durP2;ratioP2;P2;SDS_P1;SDS_P2;PMS_P1;PMS_P2;Temp;Humidity;BMP_temperature;BMP_pressure;BME280_temperature;BME280_humidity;BME280_pressure;Samples;Min_cycle;Max_cycle;Signal;HPM_P1;HPM_P2
2023/03/21 00:01:41;;;;;;;13.32;12.52;;;;;;;;;;4996385;28;20034;-56
2023/03/21 00:04:06;;;;;;;13.75;12.95;;;;;;;;;;4993446;28;20095;-56
2023/03/21 00:06:32;;;;;;;14.10;13.10;;;;;;;;;;4991877;28;20030;-52
2023/03/21 00:08:57;;;;;;;12.60;11.88;;;;;;;;;;4992863;28;20050;-52
2023/03/21 00:11:22;;;;;;;13.93;13.13;;;;;;;;;;4993296;28;20436;-52
2023/03/21 00:13:48;;;;;;;13.13;12.27;;;;;;;;;;4993708;28;20368;-51
2023/03/21 00:16:16;;;;;;;13.35;12.55;;;;;;;;;;4993931;28;20595;-50
2023/03/21 00:18:47;;;;;;;13.50;12.70;;;;;;;;;;4993079;28;20093;-56
2023/03/21 00:21:17;;;;;;;;;;;;;;;;;;4993481;28;20621;-56
2023/03/21 00:23:43;;;;;;;13.70;12.88;;;;;;;;;;4993160;28;20020;-51
2023/03/21 00:26:09;;;;;;;13.77;12.95;;;;;;;;;;4994549;28;20092;-50
2023/03/21 00:28:38;;;;;;;12.38;11.68;;;;;;;;;;4991599;28;20038;-52
2023/03/21 00:31:05;;;;;;;14.05;13.10;;;;;;;;;;4995821;28;20041;-50
2023/03/21 00:33:31;;;;;;;13.32;12.52;;;;;;;;;;4994011;28;20212;-54
2023/03/21 00:35:56;;;;;;;12.35;11.65;;;;;;;;;;4995924;28;20671;-56
2023/03/21 00:38:23;;;;;;;13.60;12.80;;;;;;;;;;4990274;28;20034;-56
2023/03/21 00:40:48;;;;;;;15.00;14.07;;;;;;;;;;4994111;28;20030;-55
2023/03/21 00:43:17;;;;;;;13.93;13.13;;;;;;;;;;4991566;28;20051;-56
2023/03/21 00:45:43;;;;;;;13.10;12.30;;;;;;;;;;4991469;28;20049;-56
2023/03/21 00:48:09;;;;;;;13.98;12.93;;;;;;;;;;4990269;28;20449;-56
2023/03/21 00:50:35;;;;;;;13.75;12.90;;;;;;;;;;4995325;28;20092;-57
2023/03/21 00:53:00;;;;;;;13.52;12.73;;;;;;;;;;4993679;28;20073;-57
2023/03/21 00:55:26;;;;;;;13.40;12.50;;;;;;;;;;4996511;28;20129;-57
2023/03/21 00:57:51;;;;;;;12.80;12.00;;;;;;;;;;4990144;28;20049;-59
2023/03/21 01:00:17;;;;;;;12.23;11.52;;;;;;;;;;4988030;28;20534;-59
2023/03/21 01:02:55;;;;;;;13.30;12.50;;;;;;;;;;4997453;28;20030;-58
2023/03/21 01:08:20;;;;;;;13.05;12.25;;;;;;;;;;5010187;28;20044;-58
2023/03/21 01:10:47;;;;;;;17.55;12.68;;;;;;;;;;4993077;28;20359;-59
2023/03/21 01:13:15;;;;;;;11.93;11.23;;;;;;;;;;4997876;28;20045;-58
2023/03/21 01:15:53;;;;;;;11.93;11.23;;;;;;;;;;4997264;28;20475;-59
2023/03/21 01:18:21;;;;;;;12.35;11.60;;;;;;;;;;4996464;28;20045;-59
2023/03/21 01:20:47;;;;;;;12.82;11.90;;;;;;;;;;4999919;28;20042;-58
2023/03/21 01:23:14;;;;;;;13.93;13.02;;;;;;;;;;4997703;28;20038;-59
2023/03/21 01:25:40;;;;;;;14.27;13.48;;;;;;;;;;4995722;28;20034;-59
2023/03/21 01:28:05;;;;;;;13.77;12.90;;;;;;;;;;4994118;28;20097;-49
2023/03/21 01:30:31;;;;;;;12.82;12.02;;;;;;;;;;4997625;28;20041;-51
2023/03/21 01:32:56;;;;;;;13.70;12.80;;;;;;;;;;5007746;28;20625;-50
2023/03/21 01:35:22;;;;;;;12.82;12.02;;;;;;;;;;4994689;28;20042;-51
2023/03/21 01:37:48;;;;;;;13.60;12.80;;;;;;;;;;4998678;28;20125;-52
2023/03/21 01:40:22;;;;;;;13.30;12.50;;;;;;;;;;4995625;28;20042;-49
2023/03/21 01:42:48;;;;;;;13.18;12.30;;;;;;;;;;4997768;28;20116;-50
2023/03/21 01:45:51;;;;;;;14.88;13.88;;;;;;;;;;4995527;28;20073;-52
2023/03/21 01:48:18;;;;;;;13.80;13.00;;;;;;;;;;4992791;28;20038;-50
2023/03/21 01:50:45;;;;;;;13.30;12.50;;;;;;;;;;4994603;28;20058;-49
2023/03/21 01:53:10;;;;;;;14.05;13.15;;;;;;;;;;4992137;28;20052;-52
2023/03/21 01:55:36;;;;;;;14.50;13.70;;;;;;;;;;5012874;28;20575;-48
2023/03/21 01:58:03;;;;;;;13.57;12.77;;;;;;;;;;4994706;28;20121;-52
2023/03/21 02:00:30;;;;;;;13.10;12.30;;;;;;;;;;4993970;28;20053;-50
2023/03/21 02:03:00;;;;;;;13.82;12.93;;;;;;;;;;4996776;28;20069;-49
2023/03/21 02:05:35;;;;;;;14.40;13.57;;;;;;;;;;4996000;28;20046;-48
2023/03/21 02:08:00;;;;;;;12.73;11.73;;;;;;;;;;4996900;28;20034;-48
2023/03/21 02:10:27;;;;;;;13.40;12.60;;;;;;;;;;4997174;28;20040;-50
2023/03/21 02:12:54;;;;;;;13.93;13.13;;;;;;;;;;4996995;28;20491;-49
2023/03/21 02:15:22;;;;;;;14.15;13.25;;;;;;;;;;4998288;28;20061;-49
2023/03/21 02:18:05;;;;;;;14.23;13.43;;;;;;;;;;4995110;28;20485;-52
2023/03/21 02:21:10;;;;;;;13.07;12.30;;;;;;;;;;4995610;28;20042;-48
2023/03/21 02:23:57;;;;;;;12.80;12.07;;;;;;;;;;4996410;28;20041;-48
2023/03/21 02:26:59;;;;;;;12.27;11.57;;;;;;;;;;4995788;28;20038;-55
2023/03/21 02:29:31;;;;;;;13.02;12.23;;;;;;;;;;4995575;28;20173;-49
2023/03/21 02:32:06;;;;;;;13.77;12.68;;;;;;;;;;4997289;28;20069;-48
2023/03/21 02:34:53;;;;;;;13.00;12.20;;;;;;;;;;4995570;28;20026;-58
2023/03/21 02:37:28;;;;;;;12.23;11.45;;;;;;;;;;4996625;28;20057;-54
2023/03/21 02:40:31;;;;;;;13.57;12.68;;;;;;;;;;4995508;28;20034;-49
2023/03/21 02:43:05;;;;;;;11.68;10.98;;;;;;;;;;5004143;28;20124;-49
2023/03/21 02:46:21;;;;;;;13.07;12.27;;;;;;;;;;4998522;28;20045;-58
2023/03/21 02:49:02;;;;;;;12.45;11.73;;;;;;;;;;4966169;28;20053;-50
2023/03/21 02:51:29;;;;;;;11.23;10.52;;;;;;;;;;4995965;28;20046;-51
2023/03/21 02:54:02;;;;;;;11.70;11.00;;;;;;;;;;4997192;28;20102;-56
2023/03/21 02:56:30;;;;;;;13.60;12.70;;;;;;;;;;4995008;28;20030;-57
2023/03/21 02:58:56;;;;;;;11.43;10.73;;;;;;;;;;4995616;28;20038;-56
2023/03/21 03:01:24;;;;;;;12.25;11.50;;;;;;;;;;4998457;28;20053;-57
2023/03/21 03:03:51;;;;;;;11.30;10.60;;;;;;;;;;4995211;28;20034;-58
2023/03/21 03:06:25;;;;;;;14.55;11.52;;;;;;;;;;5010475;28;20044;-51
2023/03/21 03:09:16;;;;;;;11.82;10.95;;;;;;;;;;5010453;28;20022;-52
2023/03/21 03:11:44;;;;;;;12.77;11.98;;;;;;;;;;4996443;28;20056;-53
2023/03/21 03:14:25;;;;;;;14.73;13.73;;;;;;;;;;4996502;28;20380;-53
2023/03/21 03:17:16;;;;;;;12.48;11.68;;;;;;;;;;4992905;28;20038;-49
2023/03/21 03:20:09;;;;;;;11.85;11.15;;;;;;;;;;4995650;28;20038;-51
2023/03/21 03:23:07;;;;;;;11.27;10.57;;;;;;;;;;4999129;28;20036;-50
2023/03/21 03:25:41;;;;;;;12.30;11.50;;;;;;;;;;4970350;28;20054;-52
2023/03/21 03:28:08;;;;;;;12.00;11.30;;;;;;;;;;5009637;28;20057;-54
2023/03/21 03:30:35;;;;;;;12.15;11.45;;;;;;;;;;4996484;28;20041;-49
2023/03/21 03:33:05;;;;;;;13.75;12.85;;;;;;;;;;4997037;28;20125;-50
2023/03/21 03:35:31;;;;;;;12.40;11.60;;;;;;;;;;4997455;28;20369;-52
2023/03/21 03:38:00;;;;;;;12.50;11.60;;;;;;;;;;4995101;28;20038;-51
2023/03/21 03:40:35;;;;;;;13.32;12.52;;;;;;;;;;4995876;28;20030;-59
2023/03/21 03:43:06;;;;;;;13.40;12.57;;;;;;;;;;4994725;28;20066;-58
2023/03/21 03:45:36;;;;;;;13.68;12.55;;;;;;;;;;4995222;28;20041;-58
2023/03/21 03:48:14;;;;;;;11.63;10.93;;;;;;;;;;4995570;28;20037;-58
2023/03/21 03:50:52;;;;;;;12.90;12.15;;;;;;;;;;4993883;28;20144;-60
2023/03/21 03:53:37;;;;;;;11.52;10.82;;;;;;;;;;4994368;28;20038;-56
2023/03/21 03:56:04;;;;;;;13.10;12.30;;;;;;;;;;4992803;28;20042;-58
2023/03/21 03:58:31;;;;;;;12.73;11.93;;;;;;;;;;4993875;28;20026;-57
2023/03/21 04:00:56;;;;;;;12.55;11.85;;;;;;;;;;4997118;28;20031;-56
2023/03/21 04:03:22;;;;;;;13.10;12.07;;;;;;;;;;4981895;28;20068;-60
2023/03/21 04:05:47;;;;;;;12.75;11.85;;;;;;;;;;4993805;28;20063;-57
2023/03/21 04:08:14;;;;;;;11.60;10.90;;;;;;;;;;4995876;28;20034;-56
2023/03/21 04:10:41;;;;;;;13.45;12.65;;;;;;;;;;4991061;28;20048;-56
2023/03/21 04:13:07;;;;;;;12.52;11.75;;;;;;;;;;4993573;28;20042;-57
2023/03/21 04:15:32;;;;;;;11.68;10.93;;;;;;;;;;4991983;28;20042;-57
2023/03/21 04:17:57;;;;;;;11.65;10.95;;;;;;;;;;4992941;28;20529;-57
2023/03/21 04:20:23;;;;;;;12.68;11.88;;;;;;;;;;4994594;28;20104;-57
2023/03/21 04:22:50;;;;;;;12.32;11.52;;;;;;;;;;4995340;28;20113;-49
2023/03/21 04:25:15;;;;;;;12.15;11.45;;;;;;;;;;4994182;28;20115;-49
2023/03/21 04:27:41;;;;;;;12.70;11.90;;;;;;;;;;4994794;28;20683;-48
2023/03/21 04:30:07;;;;;;;12.63;11.73;;;;;;;;;;4994333;28;20042;-49
2023/03/21 04:32:38;;;;;;;11.63;10.93;;;;;;;;;;4994378;28;20479;-50
2023/03/21 04:35:03;;;;;;;;;;;;;;;;;;4993248;28;20053;-48
2023/03/21 04:37:32;;;;;;;11.60;10.90;;;;;;;;;;4990139;28;19914;-48
2023/03/21 04:39:58;;;;;;;12.68;11.88;;;;;;;;;;4993121;28;20038;-48
2023/03/21 04:42:23;;;;;;;12.10;11.30;;;;;;;;;;4993330;28;20038;-48
2023/03/21 04:44:48;;;;;;;12.00;11.20;;;;;;;;;;4995582;28;20038;-47
2023/03/21 04:47:15;;;;;;;12.57;11.77;;;;;;;;;;4995688;28;20665;-50
2023/03/21 04:49:44;;;;;;;13.50;12.70;;;;;;;;;;4995784;28;20044;-51
2023/03/21 04:52:09;;;;;;;13.18;12.32;;;;;;;;;;4997501;28;20041;-48
2023/03/21 04:54:35;;;;;;;12.43;11.73;;;;;;;;;;4993681;28;20507;-57
2023/03/21 04:57:01;;;;;;;13.20;12.40;;;;;;;;;;4990431;28;20133;-50
2023/03/21 04:59:27;;;;;;;13.55;12.65;;;;;;;;;;4990151;28;20034;-57
2023/03/21 05:01:52;;;;;;;12.60;11.80;;;;;;;;;;4994455;28;20096;-57
2023/03/21 05:04:17;;;;;;;12.23;11.52;;;;;;;;;;4996203;28;20037;-52
2023/03/21 05:06:45;;;;;;;12.32;11.57;;;;;;;;;;4991566;28;20054;-48
2023/03/21 05:09:11;;;;;;;12.80;12.00;;;;;;;;;;4994255;28;20059;-57
2023/03/21 05:11:39;;;;;;;12.52;11.80;;;;;;;;;;4993578;28;20042;-49
2023/03/21 05:14:10;;;;;;;12.20;11.40;;;;;;;;;;4994650;28;20037;-56
2023/03/21 05:16:37;;;;;;;13.27;12.40;;;;;;;;;;4993793;28;20674;-50
2023/03/21 05:19:03;;;;;;;11.85;11.13;;;;;;;;;;4992512;28;20250;-57
2023/03/21 05:21:32;;;;;;;18.55;11.27;;;;;;;;;;4995680;28;20065;-56
2023/03/21 05:24:02;;;;;;;12.18;11.48;;;;;;;;;;4992677;28;20042;-57
2023/03/21 05:26:28;;;;;;;12.85;12.05;;;;;;;;;;4995962;28;20034;-48
2023/03/21 05:28:54;;;;;;;13.32;12.52;;;;;;;;;;4993967;28;20029;-50
2023/03/21 05:31:20;;;;;;;12.80;12.00;;;;;;;;;;4995189;28;20124;-52
2023/03/21 05:33:46;;;;;;;13.73;12.93;;;;;;;;;;4994986;28;20064;-52
2023/03/21 05:36:12;;;;;;;12.68;11.88;;;;;;;;;;4990306;28;20085;-51
2023/03/21 05:38:41;;;;;;;13.05;12.25;;;;;;;;;;4991675;28;20330;-51
2023/03/21 05:41:07;;;;;;;13.77;12.65;;;;;;;;;;4995133;28;20033;-57
2023/03/21 05:43:32;;;;;;;12.25;11.45;;;;;;;;;;4990911;28;20049;-56
2023/03/21 05:45:58;;;;;;;12.00;11.30;;;;;;;;;;4994511;28;20042;-57
2023/03/21 05:48:23;;;;;;;12.90;12.10;;;;;;;;;;4991959;28;20113;-50
2023/03/21 05:50:48;;;;;;;12.38;11.57;;;;;;;;;;4999502;28;20066;-56
2023/03/21 05:53:14;;;;;;;12.95;12.05;;;;;;;;;;4991170;28;20042;-56
2023/03/21 05:55:39;;;;;;;12.25;11.45;;;;;;;;;;4986446;28;20046;-51
2023/03/21 05:58:05;;;;;;;12.60;11.80;;;;;;;;;;4991191;28;20521;-55
2023/03/21 06:00:30;;;;;;;14.63;13.70;;;;;;;;;;4998732;28;20038;-53
2023/03/21 06:02:56;;;;;;;13.00;12.15;;;;;;;;;;5004441;28;20038;-56
2023/03/21 06:05:21;;;;;;;12.60;11.90;;;;;;;;;;4995865;28;20041;-51
2023/03/21 06:07:47;;;;;;;11.95;11.23;;;;;;;;;;4993115;28;20026;-51
2023/03/21 06:10:12;;;;;;;12.85;11.95;;;;;;;;;;4994662;28;20054;-56
2023/03/21 06:12:38;;;;;;;12.23;11.52;;;;;;;;;;4998265;28;20042;-50
2023/03/21 06:15:04;;;;;;;11.98;11.27;;;;;;;;;;4995986;28;20080;-53
2023/03/21 06:17:30;;;;;;;12.00;11.20;;;;;;;;;;4995390;28;20038;-52
2023/03/21 06:19:56;;;;;;;14.18;13.27;;;;;;;;;;4996520;28;20104;-53
2023/03/21 06:22:21;;;;;;;12.43;11.63;;;;;;;;;;4997095;28;20030;-53
2023/03/21 06:24:47;;;;;;;12.15;11.38;;;;;;;;;;4991934;28;20546;-50
2023/03/21 06:27:12;;;;;;;12.50;11.70;;;;;;;;;;4994051;28;20254;-51
2023/03/21 06:29:38;;;;;;;13.25;12.45;;;;;;;;;;4995383;28;20431;-56
2023/03/21 06:32:04;;;;;;;13.90;13.00;;;;;;;;;;4992442;28;20061;-52
2023/03/21 06:34:29;;;;;;;12.45;11.75;;;;;;;;;;4996322;28;20117;-50
2023/03/21 06:36:55;;;;;;;11.88;11.18;;;;;;;;;;4996373;28;20042;-58
2023/03/21 06:39:20;;;;;;;13.25;12.45;;;;;;;;;;4995407;28;20034;-59
2023/03/21 06:41:45;;;;;;;13.00;12.20;;;;;;;;;;4993625;28;20042;-59
2023/03/21 06:44:11;;;;;;;13.18;11.95;;;;;;;;;;4997101;28;20038;-48
2023/03/21 06:46:36;;;;;;;19.95;13.20;;;;;;;;;;4994378;28;20115;-59
2023/03/21 06:49:02;;;;;;;14.50;13.63;;;;;;;;;;4993902;28;20044;-59
2023/03/21 06:51:27;;;;;;;14.95;14.07;;;;;;;;;;4992779;28;20523;-58
2023/03/21 06:53:53;;;;;;;15.00;14.02;;;;;;;;;;4991196;28;20034;-59
2023/03/21 06:56:18;;;;;;;14.48;13.68;;;;;;;;;;4995170;28;20033;-58
2023/03/21 06:58:44;;;;;;;16.92;15.80;;;;;;;;;;4996340;28;20069;-58
2023/03/21 07:01:09;;;;;;;14.63;13.63;;;;;;;;;;4993105;28;20048;-58
2023/03/21 07:03:36;;;;;;;14.95;14.05;;;;;;;;;;4996356;28;20130;-58
2023/03/21 07:06:12;;;;;;;15.70;14.73;;;;;;;;;;4996696;28;20526;-58
2023/03/21 07:08:39;;;;;;;14.52;13.70;;;;;;;;;;5008298;28;20574;-51
2023/03/21 07:11:05;;;;;;;15.02;14.13;;;;;;;;;;4993456;28;20077;-51
2023/03/21 07:13:30;;;;;;;14.00;12.90;;;;;;;;;;4996871;28;20038;-52
2023/03/21 07:15:56;;;;;;;13.02;12.18;;;;;;;;;;4995127;28;20461;-51
2023/03/21 07:18:22;;;;;;;12.82;11.93;;;;;;;;;;4994119;28;20040;-51
2023/03/21 07:20:49;;;;;;;12.98;12.15;;;;;;;;;;4994297;28;20034;-51
2023/03/21 07:23:17;;;;;;;11.35;10.65;;;;;;;;;;4996314;28;20084;-58
2023/03/21 07:25:42;;;;;;;12.27;11.57;;;;;;;;;;4993958;28;20082;-49
2023/03/21 07:28:08;;;;;;;11.40;10.70;;;;;;;;;;4991469;28;20606;-54
2023/03/21 07:30:33;;;;;;;11.40;10.70;;;;;;;;;;4991691;28;20476;-53
2023/03/21 07:32:59;;;;;;;11.00;10.00;;;;;;;;;;4997620;28;20053;-54
2023/03/21 07:35:25;;;;;;;12.45;11.65;;;;;;;;;;4992200;28;20821;-52
2023/03/21 07:37:50;;;;;;;11.50;10.70;;;;;;;;;;4992148;28;20453;-54
2023/03/21 07:40:16;;;;;;;11.70;11.00;;;;;;;;;;4994008;28;20114;-54
2023/03/21 07:42:41;;;;;;;13.20;12.10;;;;;;;;;;4993858;28;20080;-53
2023/03/21 07:45:08;;;;;;;11.65;10.95;;;;;;;;;;4994313;28;20044;-54
2023/03/21 07:47:34;;;;;;;10.88;10.18;;;;;;;;;;4992906;28;20547;-54
2023/03/21 07:50:00;;;;;;;13.18;12.38;;;;;;;;;;4992049;28;20100;-49
2023/03/21 07:52:26;;;;;;;12.95;12.05;;;;;;;;;;4993329;28;20486;-52
2023/03/21 07:54:51;;;;;;;14.18;13.15;;;;;;;;;;4984466;28;20811;-58
2023/03/21 07:57:17;;;;;;;13.48;12.68;;;;;;;;;;4992430;28;20042;-59
2023/03/21 07:59:42;;;;;;;15.68;14.43;;;;;;;;;;5009015;28;20033;-59
2023/03/21 08:02:15;;;;;;;13.48;12.68;;;;;;;;;;4995060;28;20041;-50
2023/03/21 08:04:41;;;;;;;15.73;14.73;;;;;;;;;;4993638;28;20033;-54
2023/03/21 08:07:06;;;;;;;15.90;14.35;;;;;;;;;;4995666;28;20037;-51
2023/03/21 08:09:32;;;;;;;13.82;12.93;;;;;;;;;;4994546;28;20045;-52
2023/03/21 08:11:57;;;;;;;16.33;15.32;;;;;;;;;;4996473;28;20125;-52
2023/03/21 08:14:22;;;;;;;15.75;14.75;;;;;;;;;;4998237;28;20224;-59
2023/03/21 08:16:48;;;;;;;15.88;14.95;;;;;;;;;;4999651;28;20066;-59
2023/03/21 08:19:13;;;;;;;14.90;13.57;;;;;;;;;;4995536;28;20065;-59
2023/03/21 08:21:39;;;;;;;13.10;12.30;;;;;;;;;;4995358;28;20072;-54
2023/03/21 08:24:05;;;;;;;14.30;11.88;;;;;;;;;;4997773;28;20031;-55
2023/03/21 08:26:31;;;;;;;12.25;11.38;;;;;;;;;;4997822;28;20025;-54
2023/03/21 08:28:56;;;;;;;11.40;10.70;;;;;;;;;;4999073;28;20039;-60
2023/03/21 08:31:22;;;;;;;12.63;11.27;;;;;;;;;;4998149;28;20042;-59
2023/03/21 08:33:52;;;;;;;12.10;11.30;;;;;;;;;;4996143;28;20092;-59
2023/03/21 08:36:17;;;;;;;11.95;11.25;;;;;;;;;;4996121;28;20349;-53
2023/03/21 08:38:44;;;;;;;13.40;12.57;;;;;;;;;;4996021;28;20069;-54
2023/03/21 08:41:10;;;;;;;14.60;13.77;;;;;;;;;;4998097;28;20042;-53
2023/03/21 08:43:36;;;;;;;15.48;14.55;;;;;;;;;;4993664;28;20376;-52
2023/03/21 08:46:03;;;;;;;14.18;13.35;;;;;;;;;;4990925;28;20129;-52
2023/03/21 08:48:28;;;;;;;15.07;14.18;;;;;;;;;;4989529;28;20034;-51
2023/03/21 08:50:53;;;;;;;20.63;19.42;;;;;;;;;;4991233;28;20034;-53
2023/03/21 08:53:19;;;;;;;18.77;17.73;;;;;;;;;;4993539;28;20113;-48
2023/03/21 08:55:44;;;;;;;17.35;16.30;;;;;;;;;;4992575;28;20033;-53
2023/03/21 08:58:10;;;;;;;20.00;18.88;;;;;;;;;;4992502;28;20069;-60
2023/03/21 09:00:35;;;;;;;18.52;17.50;;;;;;;;;;4995299;28;20080;-60
2023/03/21 09:03:03;;;;;;;21.38;20.10;;;;;;;;;;4994791;28;20065;-54
2023/03/21 09:05:29;;;;;;;21.52;20.23;;;;;;;;;;4994201;28;20048;-54
2023/03/21 09:07:54;;;;;;;21.25;20.08;;;;;;;;;;4991356;28;20030;-50
2023/03/21 09:10:21;;;;;;;21.27;20.08;;;;;;;;;;4993585;28;20038;-53
2023/03/21 09:12:49;;;;;;;23.98;22.58;;;;;;;;;;4994465;28;20092;-53
2023/03/21 09:15:16;;;;;;;24.52;23.20;;;;;;;;;;4994649;28;20133;-54
2023/03/21 09:17:42;;;;;;;23.40;22.10;;;;;;;;;;4996419;28;20037;-54
2023/03/21 09:20:17;;;;;;;26.08;24.67;;;;;;;;;;4994861;28;20063;-54
2023/03/21 09:22:46;;;;;;;24.30;22.92;;;;;;;;;;4994393;28;20074;-54
2023/03/21 09:25:12;;;;;;;23.75;22.45;;;;;;;;;;4994408;28;20057;-59
2023/03/21 09:27:38;;;;;;;27.35;25.75;;;;;;;;;;4994880;28;20125;-59
2023/03/21 09:30:06;;;;;;;28.25;26.65;;;;;;;;;;4990177;28;20109;-60
2023/03/21 09:32:32;;;;;;;23.77;22.48;;;;;;;;;;4993929;28;20116;-53
2023/03/21 09:34:58;;;;;;;24.23;22.83;;;;;;;;;;4995309;28;20068;-54
2023/03/21 09:37:24;;;;;;;25.13;23.73;;;;;;;;;;4994405;28;20504;-59
2023/03/21 09:39:50;;;;;;;28.88;27.38;;;;;;;;;;4995261;28;20045;-59
2023/03/21 09:42:45;;;;;;;28.90;27.20;;;;;;;;;;4995131;28;20109;-59
2023/03/21 09:45:20;;;;;;;27.50;26.00;;;;;;;;;;4994421;28;20023;-59
2023/03/21 09:47:55;;;;;;;28.48;26.88;;;;;;;;;;4995344;28;20080;-59
2023/03/21 09:50:37;;;;;;;25.23;23.88;;;;;;;;;;4997352;28;20141;-59
2023/03/21 09:53:08;;;;;;;29.73;28.13;;;;;;;;;;4996885;28;20042;-58
2023/03/21 09:55:37;;;;;;;26.85;25.45;;;;;;;;;;4997709;28;20085;-59
2023/03/21 09:58:27;;;;;;;27.77;26.27;;;;;;;;;;5001736;28;20649;-59
2023/03/21 10:01:01;;;;;;;30.80;28.80;;;;;;;;;;5003634;28;20034;-52
2023/03/21 10:03:34;;;;;;;30.27;28.55;;;;;;;;;;5001218;28;20068;-53
2023/03/21 10:06:04;;;;;;;31.15;29.40;;;;;;;;;;4997994;28;20464;-50
2023/03/21 10:08:40;;;;;;;25.60;24.20;;;;;;;;;;4997475;28;20037;-50
2023/03/21 10:11:09;;;;;;;27.80;26.30;;;;;;;;;;4994449;28;20030;-52
2023/03/21 10:13:39;;;;;;;26.52;24.70;;;;;;;;;;4991900;28;20048;-53
2023/03/21 10:16:15;;;;;;;;;;;;;;;;;;4999608;28;20476;-53
2023/03/21 10:18:42;;;;;;;24.60;23.23;;;;;;;;;;4994202;28;19922;-53
2023/03/21 10:21:15;;;;;;;24.45;23.05;;;;;;;;;;4995651;28;20034;-53
2023/03/21 10:23:41;;;;;;;27.52;26.02;;;;;;;;;;5011999;28;20033;-52
2023/03/21 10:26:06;;;;;;;26.15;24.60;;;;;;;;;;4995705;28;20038;-52
2023/03/21 10:28:39;;;;;;;26.92;25.42;;;;;;;;;;4994392;28;20041;-60
2023/03/21 10:31:12;;;;;;;20.60;19.42;;;;;;;;;;4996756;28;20042;-60
2023/03/21 10:33:43;;;;;;;22.35;21.02;;;;;;;;;;4995745;28;20473;-59
2023/03/21 10:36:15;;;;;;;21.50;20.30;;;;;;;;;;4999986;28;20042;-59
2023/03/21 10:38:45;;;;;;;21.33;20.13;;;;;;;;;;4998647;28;20044;-59
2023/03/21 10:41:10;;;;;;;22.07;20.77;;;;;;;;;;4993974;28;20045;-59
2023/03/21 10:43:39;;;;;;;23.35;21.98;;;;;;;;;;4994847;28;20730;-59
2023/03/21 10:46:22;;;;;;;25.38;24.00;;;;;;;;;;4995814;28;20411;-60
2023/03/21 10:48:53;;;;;;;26.77;25.30;;;;;;;;;;4997421;28;20054;-59
2023/03/21 10:51:21;;;;;;;28.42;26.92;;;;;;;;;;4998666;28;20121;-59
2023/03/21 10:53:59;;;;;;;23.48;22.17;;;;;;;;;;4995012;28;20753;-59
2023/03/21 10:56:33;;;;;;;17.27;16.27;;;;;;;;;;4997838;28;20034;-59
2023/03/21 10:59:00;;;;;;;13.63;12.82;;;;;;;;;;4994090;28;20042;-59
2023/03/21 11:01:39;;;;;;;13.52;12.73;;;;;;;;;;4993203;28;20034;-60
2023/03/21 11:04:14;;;;;;;12.10;11.40;;;;;;;;;;4991987;28;20038;-59
2023/03/21 11:06:43;;;;;;;15.75;14.85;;;;;;;;;;4995367;28;20092;-58
2023/03/21 11:09:15;;;;;;;14.02;13.13;;;;;;;;;;4994061;28;20042;-59
2023/03/21 11:11:49;;;;;;;17.77;16.77;;;;;;;;;;4994036;28;20109;-59
2023/03/21 11:14:27;;;;;;;24.98;23.65;;;;;;;;;;4994535;28;20031;-49
2023/03/21 11:16:52;;;;;;;17.48;16.48;;;;;;;;;;4994009;28;20034;-59
2023/03/21 11:19:27;;;;;;;25.77;24.27;;;;;;;;;;4994065;28;20030;-59
2023/03/21 11:21:56;;;;;;;16.42;15.45;;;;;;;;;;4994925;28;20112;-59
2023/03/21 11:24:21;;;;;;;19.23;18.17;;;;;;;;;;4994665;28;20133;-58
2023/03/21 11:26:49;;;;;;;23.48;22.17;;;;;;;;;;4994341;28;20140;-59
2023/03/21 11:29:32;;;;;;;21.38;20.23;;;;;;;;;;4995004;28;20072;-48
2023/03/21 11:32:01;;;;;;;20.38;19.25;;;;;;;;;;4996662;28;20041;-48
2023/03/21 11:34:43;;;;;;;24.75;23.35;;;;;;;;;;4995221;28;20033;-49
2023/03/21 11:37:18;;;;;;;22.10;20.90;;;;;;;;;;4994298;28;20046;-58
2023/03/21 11:39:44;;;;;;;20.98;19.80;;;;;;;;;;5012370;28;20047;-50
2023/03/21 11:42:31;;;;;;;24.55;23.15;;;;;;;;;;4996109;28;20767;-52
2023/03/21 11:45:10;;;;;;;24.30;22.90;;;;;;;;;;4995841;28;20443;-49
2023/03/21 11:47:36;;;;;;;29.63;27.98;;;;;;;;;;4996512;28;20018;-48
2023/03/21 11:50:12;;;;;;;23.38;22.13;;;;;;;;;;4996349;28;20482;-47
2023/03/21 11:52:42;;;;;;;24.05;22.77;;;;;;;;;;4994288;28;20088;-51
2023/03/21 11:55:35;;;;;;;22.73;21.45;;;;;;;;;;4991415;28;20077;-46
2023/03/21 11:58:17;;;;;;;22.30;21.00;;;;;;;;;;4993437;28;20042;-47
2023/03/21 12:00:53;;;;;;;23.33;22.00;;;;;;;;;;4994023;28;20444;-47
2023/03/21 12:03:44;;;;;;;20.55;19.42;;;;;;;;;;4993755;28;20117;-58
2023/03/21 12:06:53;;;;;;;21.92;20.70;;;;;;;;;;4993906;28;20034;-49
2023/03/21 12:09:33;;;;;;;20.17;19.05;;;;;;;;;;4933470;28;20441;-47
2023/03/21 12:12:16;;;;;;;18.42;17.38;;;;;;;;;;4995095;28;20058;-49
2023/03/21 12:14:56;;;;;;;19.58;18.52;;;;;;;;;;4992854;28;20110;-49
2023/03/21 12:17:43;;;;;;;19.52;18.27;;;;;;;;;;5006891;28;20045;-57
2023/03/21 12:20:13;;;;;;;17.27;16.30;;;;;;;;;;4995254;28;20045;-56
2023/03/21 12:23:04;;;;;;;17.85;16.85;;;;;;;;;;4996876;28;20042;-55
2023/03/21 12:25:32;;;;;;;;;;;;;;;;;;4993525;28;20034;-48
2023/03/21 12:28:07;;;;;;;15.25;14.35;;;;;;;;;;4992763;28;20397;-58
2023/03/21 12:30:35;;;;;;;17.65;16.65;;;;;;;;;;4994040;28;20057;-47
2023/03/21 12:33:12;;;;;;;19.70;18.38;;;;;;;;;;4993355;28;20617;-49
2023/03/21 12:36:21;;;;;;;16.80;15.48;;;;;;;;;;4991515;28;20109;-49
2023/03/21 12:39:00;;;;;;;11.95;11.25;;;;;;;;;;4928622;28;20039;-57
2023/03/21 12:41:41;;;;;;;12.50;11.80;;;;;;;;;;4992748;28;20521;-48
2023/03/21 12:44:18;;;;;;;;;;;;;;;;;;4994945;28;20041;-58
2023/03/21 12:46:53;;;;;;;11.63;10.93;;;;;;;;;;4994028;28;20000;-52
2023/03/21 12:49:27;;;;;;;13.25;12.30;;;;;;;;;;4992105;28;20584;-59
2023/03/21 12:52:16;;;;;;;14.52;13.70;;;;;;;;;;4995828;28;20065;-59
2023/03/21 12:54:50;;;;;;;14.73;13.82;;;;;;;;;;4981559;28;20064;-58
2023/03/21 12:57:24;;;;;;;15.32;14.43;;;;;;;;;;4990239;28;20042;-57
2023/03/21 13:00:09;;;;;;;16.85;15.93;;;;;;;;;;4989148;28;20045;-57
2023/03/21 13:02:48;;;;;;;17.40;16.40;;;;;;;;;;4992171;28;20065;-59
2023/03/21 13:05:34;;;;;;;17.65;16.65;;;;;;;;;;4994093;28;20084;-53
2023/03/21 13:08:09;;;;;;;16.55;15.63;;;;;;;;;;4989943;28;20034;-49
2023/03/21 13:10:34;;;;;;;15.90;15.00;;;;;;;;;;4992288;28;20117;-57
2023/03/21 13:13:15;;;;;;;16.58;15.68;;;;;;;;;;4991398;28;20591;-48
2023/03/21 13:15:56;;;;;;;18.48;15.88;;;;;;;;;;4995648;28;20345;-49
2023/03/21 13:18:47;;;;;;;18.00;17.00;;;;;;;;;;4993821;28;20145;-49
2023/03/21 13:21:48;;;;;;;16.42;15.52;;;;;;;;;;4987975;28;20057;-47
2023/03/21 13:24:23;;;;;;;17.38;16.38;;;;;;;;;;4978020;28;20050;-48
2023/03/21 13:26:56;;;;;;;17.95;16.95;;;;;;;;;;4989502;28;20551;-51
2023/03/21 13:29:23;;;;;;;17.55;16.50;;;;;;;;;;4992067;28;20117;-47
2023/03/21 13:31:51;;;;;;;17.95;16.95;;;;;;;;;;4992793;28;20116;-52
2023/03/21 13:34:21;;;;;;;18.17;17.17;;;;;;;;;;5006585;28;20038;-47
2023/03/21 13:36:48;;;;;;;18.80;17.65;;;;;;;;;;4993547;28;20064;-49
2023/03/21 13:39:25;;;;;;;17.20;16.20;;;;;;;;;;4991023;28;20184;-51
2023/03/21 13:41:52;;;;;;;20.35;19.23;;;;;;;;;;4991584;28;20034;-51
2023/03/21 13:44:34;;;;;;;19.08;18.05;;;;;;;;;;4991358;28;20040;-51
2023/03/21 13:47:20;;;;;;;22.30;21.10;;;;;;;;;;4990940;28;20041;-55
2023/03/21 13:50:15;;;;;;;19.45;18.35;;;;;;;;;;4991433;28;20037;-56
2023/03/21 13:52:40;;;;;;;17.92;16.88;;;;;;;;;;4991398;28;20037;-52
2023/03/21 13:55:18;;;;;;;17.83;16.83;;;;;;;;;;5000630;28;20034;-54
2023/03/21 13:57:46;;;;;;;21.40;20.20;;;;;;;;;;4996179;28;20635;-53
2023/03/21 14:00:30;;;;;;;19.23;18.08;;;;;;;;;;4994148;28;20478;-55
2023/03/21 14:03:05;;;;;;;18.67;17.63;;;;;;;;;;4996311;28;20158;-55
2023/03/21 14:05:31;;;;;;;18.95;17.65;;;;;;;;;;4991493;28;20490;-48
2023/03/21 14:08:02;;;;;;;17.10;16.15;;;;;;;;;;4988987;28;20030;-50
2023/03/21 14:10:40;;;;;;;16.80;15.82;;;;;;;;;;4991304;28;20045;-48
2023/03/21 14:13:09;;;;;;;17.13;16.15;;;;;;;;;;4992971;28;20687;-56
2023/03/21 14:15:48;;;;;;;19.17;18.08;;;;;;;;;;4993058;28;20088;-56
2023/03/21 14:18:22;;;;;;;19.05;18.00;;;;;;;;;;4992786;28;20041;-48
2023/03/21 14:20:53;;;;;;;18.27;17.20;;;;;;;;;;4996920;28;20161;-48
2023/03/21 14:23:19;;;;;;;17.48;16.48;;;;;;;;;;4997558;28;20076;-47
2023/03/21 14:25:47;;;;;;;16.13;15.20;;;;;;;;;;4997409;28;20069;-50
2023/03/21 14:28:24;;;;;;;16.65;15.60;;;;;;;;;;4997032;28;20598;-51
2023/03/21 14:30:53;;;;;;;15.45;14.40;;;;;;;;;;4996788;28;20037;-49
2023/03/21 14:33:22;;;;;;;13.45;12.52;;;;;;;;;;4997176;28;20070;-55
2023/03/21 14:35:48;;;;;;;15.05;13.70;;;;;;;;;;4995120;28;20667;-56
2023/03/21 14:38:23;;;;;;;12.73;11.95;;;;;;;;;;4996353;28;20037;-58
2023/03/21 14:40:53;;;;;;;12.40;11.70;;;;;;;;;;4995394;28;20042;-50
2023/03/21 14:43:20;;;;;;;14.10;12.80;;;;;;;;;;4994833;28;20158;-49